sensor_id;sensor_type;location;lat;lon;timestamp;P1;durP1;ratioP1;P2;durP2;ratioP2
12445;SDS011;6287;50.984;7.022;2023-01-23T00:00:54;16.17;;;7.80;;
12445;SDS011;6287;50.984;7.022;2023-01-23T00:03:21;13.90;;;7.10;;
12445;SDS011;6287;50.984;7.022;2023-01-23T00:06:01;16.60;;;8.00;;
12445;SDS011;6287;50.984;7.022;2023-01-23T00:08:32;16.03;;;7.77;;
12445;SDS011;6287;50.984;7.022;2023-01-23T00:10:58;15.30;;;7.80;;
12445;SDS011;6287;50.984;7.022;2023-01-23T00:13:27;15.77;;;7.27;;
12445;SDS011;6287;50.984;7.022;2023-01-23T00:15:52;14.27;;;7.07;;
12445;SDS011;6287;50.984;7.022;2023-01-23T00:18:21;13.93;;;7.20;;
12445;SDS011;6287;50.984;7.022;2023-01-23T00:20:47;15.40;;;6.97;;
12445;SDS011;6287;50.984;7.022;2023-01-23T00:23:13;18.57;;;7.60;;
12445;SDS011;6287;50.984;7.022;2023-01-23T00:25:41;13.73;;;7.93;;
12445;SDS011;6287;50.984;7.022;2023-01-23T00:28:09;17.87;;;7.23;;
12445;SDS011;6287;50.984;7.022;2023-01-23T00:30:37;14.50;;;6.87;;
12445;SDS011;6287;50.984;7.022;2023-01-23T00:33:06;12.70;;;7.13;;
12445;SDS011;6287;50.984;7.022;2023-01-23T00:35:35;16.40;;;7.67;;
12445;SDS011;6287;50.984;7.022;2023-01-23T00:38:02;14.13;;;7.50;;
12445;SDS011;6287;50.984;7.022;2023-01-23T00:40:28;15.00;;;8.23;;
12445;SDS011;6287;50.984;7.022;2023-01-23T00:42:53;10.93;;;6.63;;
12445;SDS011;6287;50.984;7.022;2023-01-23T00:45:19;13.60;;;7.30;;
12445;SDS011;6287;50.984;7.022;2023-01-23T00:47:47;11.97;;;6.87;;
12445;SDS011;6287;50.984;7.022;2023-01-23T00:50:15;19.53;;;7.70;;
12445;SDS011;6287;50.984;7.022;2023-01-23T00:52:45;16.03;;;7.77;;
12445;SDS011;6287;50.984;7.022;2023-01-23T00:55:11;12.20;;;6.90;;
12445;SDS011;6287;50.984;7.022;2023-01-23T00:57:39;15.13;;;7.67;;
12445;SDS011;6287;50.984;7.022;2023-01-23T01:00:07;12.17;;;7.43;;
12445;SDS011;6287;50.984;7.022;2023-01-23T01:02:36;15.33;;;8.07;;
12445;SDS011;6287;50.984;7.022;2023-01-23T01:05:02;12.37;;;6.77;;
12445;SDS011;6287;50.984;7.022;2023-01-23T01:07:30;16.23;;;8.27;;
12445;SDS011;6287;50.984;7.022;2023-01-23T01:09:57;13.43;;;7.20;;
12445;SDS011;6287;50.984;7.022;2023-01-23T01:12:23;17.03;;;8.10;;
12445;SDS011;6287;50.984;7.022;2023-01-23T01:14:49;13.87;;;8.03;;
12445;SDS011;6287;50.984;7.022;2023-01-23T01:17:16;13.97;;;7.90;;
12445;SDS011;6287;50.984;7.022;2023-01-23T01:19:47;17.30;;;7.93;;
12445;SDS011;6287;50.984;7.022;2023-01-23T01:22:20;12.13;;;6.83;;
12445;SDS011;6287;50.984;7.022;2023-01-23T01:24:45;15.37;;;7.00;;
12445;SDS011;6287;50.984;7.022;2023-01-23T01:27:11;18.83;;;8.57;;
12445;SDS011;6287;50.984;7.022;2023-01-23T01:29:37;15.27;;;7.67;;
12445;SDS011;6287;50.984;7.022;2023-01-23T01:32:03;14.47;;;7.37;;
12445;SDS011;6287;50.984;7.022;2023-01-23T01:34:31;15.07;;;7.20;;
12445;SDS011;6287;50.984;7.022;2023-01-23T01:37:00;12.03;;;6.40;;
12445;SDS011;6287;50.984;7.022;2023-01-23T01:39:26;13.37;;;7.13;;
12445;SDS011;6287;50.984;7.022;2023-01-23T01:41:54;16.13;;;7.90;;
12445;SDS011;6287;50.984;7.022;2023-01-23T01:44:22;13.80;;;6.67;;
12445;SDS011;6287;50.984;7.022;2023-01-23T01:46:51;13.73;;;7.00;;
12445;SDS011;6287;50.984;7.022;2023-01-23T01:49:27;16.07;;;8.00;;
12445;SDS011;6287;50.984;7.022;2023-01-23T01:52:02;17.13;;;8.23;;
12445;SDS011;6287;50.984;7.022;2023-01-23T01:54:38;14.43;;;7.53;;
12445;SDS011;6287;50.984;7.022;2023-01-23T01:57:20;15.37;;;7.90;;
12445;SDS011;6287;50.984;7.022;2023-01-23T02:02:28;13.50;;;7.37;;
12445;SDS011;6287;50.984;7.022;2023-01-23T02:05:02;15.20;;;7.87;;
12445;SDS011;6287;50.984;7.022;2023-01-23T02:10:05;15.07;;;8.37;;
12445;SDS011;6287;50.984;7.022;2023-01-23T02:12:34;16.97;;;8.23;;
12445;SDS011;6287;50.984;7.022;2023-01-23T02:15:03;15.47;;;7.90;;
12445;SDS011;6287;50.984;7.022;2023-01-23T02:17:32;14.17;;;7.10;;
12445;SDS011;6287;50.984;7.022;2023-01-23T02:25:21;16.37;;;8.20;;
12445;SDS011;6287;50.984;7.022;2023-01-23T02:27:58;12.90;;;7.17;;
12445;SDS011;6287;50.984;7.022;2023-01-23T02:30:25;15.97;;;7.07;;
12445;SDS011;6287;50.984;7.022;2023-01-23T02:32:53;12.53;;;7.53;;
12445;SDS011;6287;50.984;7.022;2023-01-23T02:35:22;15.67;;;7.43;;
12445;SDS011;6287;50.984;7.022;2023-01-23T02:37:53;15.80;;;7.50;;
12445;SDS011;6287;50.984;7.022;2023-01-23T02:40:29;14.23;;;6.73;;
12445;SDS011;6287;50.984;7.022;2023-01-23T02:43:00;15.53;;;7.40;;
12445;SDS011;6287;50.984;7.022;2023-01-23T02:45:31;17.17;;;8.43;;
12445;SDS011;6287;50.984;7.022;2023-01-23T02:47:57;15.53;;;7.70;;
12445;SDS011;6287;50.984;7.022;2023-01-23T02:50:26;15.07;;;7.50;;
12445;SDS011;6287;50.984;7.022;2023-01-23T02:52:52;16.30;;;8.07;;
12445;SDS011;6287;50.984;7.022;2023-01-23T02:55:19;15.57;;;8.33;;
12445;SDS011;6287;50.984;7.022;2023-01-23T02:57:47;16.10;;;7.97;;
12445;SDS011;6287;50.984;7.022;2023-01-23T03:00:13;16.07;;;8.73;;
12445;SDS011;6287;50.984;7.022;2023-01-23T03:02:46;15.87;;;7.73;;
12445;SDS011;6287;50.984;7.022;2023-01-23T03:05:16;14.50;;;6.73;;
12445;SDS011;6287;50.984;7.022;2023-01-23T03:07:43;14.63;;;7.20;;
12445;SDS011;6287;50.984;7.022;2023-01-23T03:10:09;14.20;;;7.20;;
12445;SDS011;6287;50.984;7.022;2023-01-23T03:12:37;14.27;;;7.97;;
12445;SDS011;6287;50.984;7.022;2023-01-23T03:15:07;13.43;;;7.17;;
12445;SDS011;6287;50.984;7.022;2023-01-23T03:17:33;16.23;;;8.37;;
12445;SDS011;6287;50.984;7.022;2023-01-23T03:20:01;15.83;;;8.20;;
12445;SDS011;6287;50.984;7.022;2023-01-23T03:22:30;13.23;;;7.50;;
12445;SDS011;6287;50.984;7.022;2023-01-23T03:24:55;15.50;;;7.30;;
12445;SDS011;6287;50.984;7.022;2023-01-23T03:27:26;12.97;;;7.53;;
12445;SDS011;6287;50.984;7.022;2023-01-23T03:29:51;13.77;;;6.87;;
12445;SDS011;6287;50.984;7.022;2023-01-23T03:32:35;14.13;;;6.53;;
12445;SDS011;6287;50.984;7.022;2023-01-23T03:35:07;17.87;;;7.13;;
12445;SDS011;6287;50.984;7.022;2023-01-23T03:37:44;14.50;;;7.40;;
12445;SDS011;6287;50.984;7.022;2023-01-23T03:40:18;14.57;;;7.20;;
12445;SDS011;6287;50.984;7.022;2023-01-23T03:43:04;12.93;;;7.03;;
12445;SDS011;6287;50.984;7.022;2023-01-23T03:45:31;13.83;;;7.43;;
12445;SDS011;6287;50.984;7.022;2023-01-23T03:47:57;17.17;;;8.03;;
12445;SDS011;6287;50.984;7.022;2023-01-23T03:50:22;14.53;;;6.97;;
12445;SDS011;6287;50.984;7.022;2023-01-23T03:52:50;14.90;;;7.13;;
12445;SDS011;6287;50.984;7.022;2023-01-23T03:55:16;16.03;;;7.43;;
12445;SDS011;6287;50.984;7.022;2023-01-23T03:57:44;19.67;;;8.10;;
12445;SDS011;6287;50.984;7.022;2023-01-23T04:00:12;16.70;;;8.13;;
12445;SDS011;6287;50.984;7.022;2023-01-23T04:02:40;14.80;;;6.67;;
12445;SDS011;6287;50.984;7.022;2023-01-23T04:05:06;11.17;;;6.80;;
12445;SDS011;6287;50.984;7.022;2023-01-23T04:07:32;13.60;;;6.83;;
12445;SDS011;6287;50.984;7.022;2023-01-23T04:09:57;14.43;;;7.30;;
12445;SDS011;6287;50.984;7.022;2023-01-23T04:12:23;14.47;;;7.70;;
12445;SDS011;6287;50.984;7.022;2023-01-23T04:14:51;13.13;;;7.27;;
12445;SDS011;6287;50.984;7.022;2023-01-23T04:17:19;13.13;;;6.80;;
12445;SDS011;6287;50.984;7.022;2023-01-23T04:19:44;16.53;;;7.50;;
12445;SDS011;6287;50.984;7.022;2023-01-23T04:22:10;15.33;;;6.83;;
12445;SDS011;6287;50.984;7.022;2023-01-23T04:24:38;13.40;;;6.47;;
12445;SDS011;6287;50.984;7.022;2023-01-23T04:27:08;11.30;;;6.60;;
12445;SDS011;6287;50.984;7.022;2023-01-23T04:29:36;18.53;;;7.70;;
12445;SDS011;6287;50.984;7.022;2023-01-23T04:32:04;12.63;;;6.30;;
12445;SDS011;6287;50.984;7.022;2023-01-23T04:34:34;14.63;;;7.20;;
12445;SDS011;6287;50.984;7.022;2023-01-23T04:37:02;13.87;;;6.50;;
12445;SDS011;6287;50.984;7.022;2023-01-23T04:39:28;14.27;;;7.13;;
12445;SDS011;6287;50.984;7.022;2023-01-23T04:41:57;14.30;;;7.50;;
12445;SDS011;6287;50.984;7.022;2023-01-23T04:44:23;15.60;;;6.43;;
12445;SDS011;6287;50.984;7.022;2023-01-23T04:46:49;13.40;;;6.70;;
12445;SDS011;6287;50.984;7.022;2023-01-23T04:49:19;16.63;;;7.43;;
12445;SDS011;6287;50.984;7.022;2023-01-23T04:51:48;14.20;;;7.83;;
12445;SDS011;6287;50.984;7.022;2023-01-23T04:54:16;13.47;;;7.43;;
12445;SDS011;6287;50.984;7.022;2023-01-23T04:56:44;16.47;;;7.30;;
12445;SDS011;6287;50.984;7.022;2023-01-23T04:59:13;13.77;;;7.00;;
12445;SDS011;6287;50.984;7.022;2023-01-23T05:01:40;14.13;;;7.73;;
12445;SDS011;6287;50.984;7.022;2023-01-23T05:04:09;12.40;;;7.23;;
12445;SDS011;6287;50.984;7.022;2023-01-23T05:06:35;13.97;;;7.30;;
12445;SDS011;6287;50.984;7.022;2023-01-23T05:09:01;16.40;;;7.70;;
12445;SDS011;6287;50.984;7.022;2023-01-23T05:11:26;14.17;;;7.90;;
12445;SDS011;6287;50.984;7.022;2023-01-23T05:13:54;15.97;;;6.97;;
12445;SDS011;6287;50.984;7.022;2023-01-23T05:16:20;15.73;;;7.60;;
12445;SDS011;6287;50.984;7.022;2023-01-23T05:18:48;16.23;;;7.70;;
12445;SDS011;6287;50.984;7.022;2023-01-23T05:21:14;15.27;;;6.90;;
12445;SDS011;6287;50.984;7.022;2023-01-23T05:23:40;15.63;;;7.47;;
12445;SDS011;6287;50.984;7.022;2023-01-23T05:26:06;13.70;;;5.83;;
12445;SDS011;6287;50.984;7.022;2023-01-23T05:28:31;13.07;;;6.63;;
12445;SDS011;6287;50.984;7.022;2023-01-23T05:31:00;14.57;;;6.63;;
12445;SDS011;6287;50.984;7.022;2023-01-23T05:33:26;11.33;;;5.93;;
12445;SDS011;6287;50.984;7.022;2023-01-23T05:35:51;15.43;;;6.57;;
12445;SDS011;6287;50.984;7.022;2023-01-23T05:38:17;13.10;;;7.10;;
12445;SDS011;6287;50.984;7.022;2023-01-23T05:40:44;14.20;;;6.67;;
12445;SDS011;6287;50.984;7.022;2023-01-23T05:43:13;15.87;;;7.00;;
12445;SDS011;6287;50.984;7.022;2023-01-23T05:45:41;13.63;;;6.50;;
12445;SDS011;6287;50.984;7.022;2023-01-23T05:48:07;13.80;;;6.97;;
12445;SDS011;6287;50.984;7.022;2023-01-23T05:50:35;17.20;;;7.63;;
12445;SDS011;6287;50.984;7.022;2023-01-23T05:53:01;13.83;;;7.03;;
12445;SDS011;6287;50.984;7.022;2023-01-23T05:55:27;12.63;;;6.97;;
12445;SDS011;6287;50.984;7.022;2023-01-23T05:57:52;14.70;;;7.17;;
12445;SDS011;6287;50.984;7.022;2023-01-23T06:00:20;13.53;;;7.37;;
12445;SDS011;6287;50.984;7.022;2023-01-23T06:02:47;13.43;;;6.37;;
12445;SDS011;6287;50.984;7.022;2023-01-23T06:05:12;13.60;;;6.97;;
12445;SDS011;6287;50.984;7.022;2023-01-23T06:07:38;10.13;;;6.23;;
12445;SDS011;6287;50.984;7.022;2023-01-23T06:10:04;12.10;;;6.63;;
12445;SDS011;6287;50.984;7.022;2023-01-23T06:12:33;14.03;;;6.47;;
12445;SDS011;6287;50.984;7.022;2023-01-23T06:14:58;11.57;;;5.37;;
12445;SDS011;6287;50.984;7.022;2023-01-23T06:17:26;11.43;;;6.03;;
12445;SDS011;6287;50.984;7.022;2023-01-23T06:19:57;12.10;;;6.73;;
12445;SDS011;6287;50.984;7.022;2023-01-23T06:22:22;10.50;;;6.07;;
12445;SDS011;6287;50.984;7.022;2023-01-23T06:24:50;14.30;;;7.00;;
12445;SDS011;6287;50.984;7.022;2023-01-23T06:27:16;17.53;;;6.20;;
12445;SDS011;6287;50.984;7.022;2023-01-23T06:29:45;16.73;;;7.13;;
12445;SDS011;6287;50.984;7.022;2023-01-23T06:32:10;13.03;;;7.13;;
12445;SDS011;6287;50.984;7.022;2023-01-23T06:34:38;13.80;;;6.47;;
12445;SDS011;6287;50.984;7.022;2023-01-23T06:37:06;13.20;;;6.87;;
12445;SDS011;6287;50.984;7.022;2023-01-23T06:39:34;13.83;;;6.40;;
12445;SDS011;6287;50.984;7.022;2023-01-23T06:42:02;17.37;;;7.63;;
12445;SDS011;6287;50.984;7.022;2023-01-23T06:44:30;12.87;;;5.97;;
12445;SDS011;6287;50.984;7.022;2023-01-23T06:46:58;16.67;;;7.07;;
12445;SDS011;6287;50.984;7.022;2023-01-23T06:49:24;12.10;;;6.40;;
12445;SDS011;6287;50.984;7.022;2023-01-23T06:51:49;14.17;;;6.93;;
12445;SDS011;6287;50.984;7.022;2023-01-23T06:54:17;13.03;;;6.30;;
12445;SDS011;6287;50.984;7.022;2023-01-23T06:56:47;13.63;;;6.87;;
12445;SDS011;6287;50.984;7.022;2023-01-23T06:59:15;10.70;;;5.57;;
12445;SDS011;6287;50.984;7.022;2023-01-23T07:01:41;15.50;;;6.97;;
12445;SDS011;6287;50.984;7.022;2023-01-23T07:04:09;11.57;;;6.50;;
12445;SDS011;6287;50.984;7.022;2023-01-23T07:06:37;12.90;;;5.97;;
12445;SDS011;6287;50.984;7.022;2023-01-23T07:09:02;11.83;;;6.30;;
12445;SDS011;6287;50.984;7.022;2023-01-23T07:11:28;13.60;;;6.33;;
12445;SDS011;6287;50.984;7.022;2023-01-23T07:13:54;10.60;;;6.07;;
12445;SDS011;6287;50.984;7.022;2023-01-23T07:16:21;13.37;;;6.67;;
12445;SDS011;6287;50.984;7.022;2023-01-23T07:18:51;14.03;;;6.07;;
12445;SDS011;6287;50.984;7.022;2023-01-23T07:21:17;12.93;;;6.40;;
12445;SDS011;6287;50.984;7.022;2023-01-23T07:23:45;12.03;;;5.80;;
12445;SDS011;6287;50.984;7.022;2023-01-23T07:26:11;11.87;;;5.97;;
12445;SDS011;6287;50.984;7.022;2023-01-23T07:28:37;11.33;;;6.23;;
12445;SDS011;6287;50.984;7.022;2023-01-23T07:31:03;13.10;;;6.40;;
12445;SDS011;6287;50.984;7.022;2023-01-23T07:33:32;9.13;;;5.53;;
12445;SDS011;6287;50.984;7.022;2023-01-23T07:35:57;9.57;;;5.33;;
12445;SDS011;6287;50.984;7.022;2023-01-23T07:38:25;10.00;;;5.23;;
12445;SDS011;6287;50.984;7.022;2023-01-23T07:40:56;10.23;;;5.37;;
12445;SDS011;6287;50.984;7.022;2023-01-23T07:43:25;13.07;;;7.27;;
12445;SDS011;6287;50.984;7.022;2023-01-23T07:45:53;11.23;;;6.53;;
12445;SDS011;6287;50.984;7.022;2023-01-23T07:48:21;10.50;;;6.73;;
12445;SDS011;6287;50.984;7.022;2023-01-23T07:50:46;11.20;;;6.90;;
12445;SDS011;6287;50.984;7.022;2023-01-23T07:53:12;13.03;;;7.27;;
12445;SDS011;6287;50.984;7.022;2023-01-23T07:55:37;10.37;;;6.70;;
12445;SDS011;6287;50.984;7.022;2023-01-23T07:58:05;14.00;;;6.73;;
12445;SDS011;6287;50.984;7.022;2023-01-23T08:00:33;11.03;;;6.37;;
12445;SDS011;6287;50.984;7.022;2023-01-23T08:02:59;12.00;;;5.90;;
12445;SDS011;6287;50.984;7.022;2023-01-23T08:05:27;12.60;;;6.37;;
12445;SDS011;6287;50.984;7.022;2023-01-23T08:07:57;10.17;;;5.93;;
12445;SDS011;6287;50.984;7.022;2023-01-23T08:10:25;11.83;;;5.93;;
12445;SDS011;6287;50.984;7.022;2023-01-23T08:12:50;12.93;;;5.83;;
12445;SDS011;6287;50.984;7.022;2023-01-23T08:15:16;11.83;;;6.30;;
12445;SDS011;6287;50.984;7.022;2023-01-23T08:17:44;12.13;;;6.10;;
12445;SDS011;6287;50.984;7.022;2023-01-23T08:20:12;12.33;;;6.93;;
12445;SDS011;6287;50.984;7.022;2023-01-23T08:22:38;10.53;;;6.30;;
12445;SDS011;6287;50.984;7.022;2023-01-23T08:25:06;14.03;;;6.97;;
12445;SDS011;6287;50.984;7.022;2023-01-23T08:27:33;13.77;;;7.13;;
12445;SDS011;6287;50.984;7.022;2023-01-23T08:29:58;11.60;;;6.37;;
12445;SDS011;6287;50.984;7.022;2023-01-23T08:32:28;13.50;;;6.53;;
12445;SDS011;6287;50.984;7.022;2023-01-23T08:34:54;12.80;;;6.30;;
12445;SDS011;6287;50.984;7.022;2023-01-23T08:37:20;13.70;;;7.23;;
12445;SDS011;6287;50.984;7.022;2023-01-23T08:39:48;12.67;;;7.13;;
12445;SDS011;6287;50.984;7.022;2023-01-23T08:42:18;11.97;;;6.87;;
12445;SDS011;6287;50.984;7.022;2023-01-23T08:44:46;12.10;;;6.90;;
12445;SDS011;6287;50.984;7.022;2023-01-23T08:47:11;12.57;;;7.00;;
12445;SDS011;6287;50.984;7.022;2023-01-23T08:49:39;13.70;;;6.97;;
12445;SDS011;6287;50.984;7.022;2023-01-23T08:52:07;16.23;;;7.70;;
12445;SDS011;6287;50.984;7.022;2023-01-23T08:54:33;12.70;;;8.27;;
12445;SDS011;6287;50.984;7.022;2023-01-23T08:56:59;13.37;;;7.40;;
12445;SDS011;6287;50.984;7.022;2023-01-23T08:59:27;12.63;;;6.67;;
12445;SDS011;6287;50.984;7.022;2023-01-23T09:01:53;15.87;;;7.23;;
12445;SDS011;6287;50.984;7.022;2023-01-23T09:04:19;13.63;;;7.43;;
12445;SDS011;6287;50.984;7.022;2023-01-23T09:06:44;15.33;;;7.03;;
12445;SDS011;6287;50.984;7.022;2023-01-23T09:09:10;15.20;;;7.53;;
12445;SDS011;6287;50.984;7.022;2023-01-23T09:11:35;15.43;;;7.60;;
12445;SDS011;6287;50.984;7.022;2023-01-23T09:14:03;13.50;;;6.67;;
12445;SDS011;6287;50.984;7.022;2023-01-23T09:16:29;11.60;;;7.10;;
12445;SDS011;6287;50.984;7.022;2023-01-23T09:18:57;12.57;;;6.50;;
12445;SDS011;6287;50.984;7.022;2023-01-23T09:21:25;16.00;;;7.23;;
12445;SDS011;6287;50.984;7.022;2023-01-23T09:23:56;13.97;;;7.20;;
12445;SDS011;6287;50.984;7.022;2023-01-23T09:26:26;14.07;;;7.43;;
12445;SDS011;6287;50.984;7.022;2023-01-23T09:28:56;14.43;;;7.17;;
12445;SDS011;6287;50.984;7.022;2023-01-23T09:31:22;13.90;;;6.80;;
12445;SDS011;6287;50.984;7.022;2023-01-23T09:33:48;14.17;;;6.80;;
12445;SDS011;6287;50.984;7.022;2023-01-23T09:36:14;12.00;;;6.17;;
12445;SDS011;6287;50.984;7.022;2023-01-23T09:38:42;13.63;;;7.40;;
12445;SDS011;6287;50.984;7.022;2023-01-23T09:41:18;11.40;;;7.00;;
12445;SDS011;6287;50.984;7.022;2023-01-23T09:44:02;14.17;;;7.43;;
12445;SDS011;6287;50.984;7.022;2023-01-23T09:51:53;15.37;;;7.33;;
12445;SDS011;6287;50.984;7.022;2023-01-23T09:57:03;10.83;;;6.07;;
12445;SDS011;6287;50.984;7.022;2023-01-23T09:59:39;13.10;;;7.17;;
12445;SDS011;6287;50.984;7.022;2023-01-23T10:02:18;13.67;;;7.93;;
12445;SDS011;6287;50.984;7.022;2023-01-23T10:04:48;14.50;;;7.10;;
12445;SDS011;6287;50.984;7.022;2023-01-23T10:25:49;11.47;;;6.10;;
12445;SDS011;6287;50.984;7.022;2023-01-23T10:39:07;10.93;;;6.50;;
12445;SDS011;6287;50.984;7.022;2023-01-23T10:41:38;9.30;;;5.83;;
12445;SDS011;6287;50.984;7.022;2023-01-23T10:44:08;13.03;;;6.57;;
12445;SDS011;6287;50.984;7.022;2023-01-23T10:46:54;11.20;;;6.53;;
12445;SDS011;6287;50.984;7.022;2023-01-23T10:49:27;10.33;;;6.70;;
12445;SDS011;6287;50.984;7.022;2023-01-23T10:51:55;10.23;;;5.90;;
12445;SDS011;6287;50.984;7.022;2023-01-23T10:54:24;7.97;;;5.23;;
12445;SDS011;6287;50.984;7.022;2023-01-23T10:56:53;10.97;;;6.60;;
12445;SDS011;6287;50.984;7.022;2023-01-23T10:59:39;10.67;;;5.93;;
12445;SDS011;6287;50.984;7.022;2023-01-23T11:02:21;11.23;;;7.20;;
12445;SDS011;6287;50.984;7.022;2023-01-23T11:04:50;10.83;;;5.57;;
12445;SDS011;6287;50.984;7.022;2023-01-23T11:09:50;11.87;;;6.07;;
12445;SDS011;6287;50.984;7.022;2023-01-23T11:12:28;11.00;;;6.13;;
12445;SDS011;6287;50.984;7.022;2023-01-23T11:17:54;10.30;;;5.77;;
12445;SDS011;6287;50.984;7.022;2023-01-23T11:20:35;8.80;;;5.30;;
12445;SDS011;6287;50.984;7.022;2023-01-23T11:23:15;11.43;;;5.97;;
12445;SDS011;6287;50.984;7.022;2023-01-23T11:25:43;8.73;;;5.53;;
12445;SDS011;6287;50.984;7.022;2023-01-23T11:30:45;9.03;;;5.43;;
12445;SDS011;6287;50.984;7.022;2023-01-23T11:38:42;7.70;;;4.77;;
12445;SDS011;6287;50.984;7.022;2023-01-23T11:41:15;7.90;;;4.87;;
12445;SDS011;6287;50.984;7.022;2023-01-23T11:43:41;9.50;;;5.73;;
12445;SDS011;6287;50.984;7.022;2023-01-23T12:07:29;7.07;;;4.60;;
12445;SDS011;6287;50.984;7.022;2023-01-23T12:10:13;5.43;;;3.87;;
12445;SDS011;6287;50.984;7.022;2023-01-23T12:12:46;5.20;;;3.43;;
12445;SDS011;6287;50.984;7.022;2023-01-23T12:31:55;4.00;;;3.30;;
12445;SDS011;6287;50.984;7.022;2023-01-23T12:45:20;5.10;;;3.17;;
12445;SDS011;6287;50.984;7.022;2023-01-23T12:53:17;2.93;;;2.60;;
12445;SDS011;6287;50.984;7.022;2023-01-23T12:58:28;5.23;;;3.40;;
12445;SDS011;6287;50.984;7.022;2023-01-23T13:01:05;4.53;;;3.40;;
12445;SDS011;6287;50.984;7.022;2023-01-23T13:14:43;3.27;;;2.23;;
12445;SDS011;6287;50.984;7.022;2023-01-23T13:19:54;3.53;;;2.27;;
12445;SDS011;6287;50.984;7.022;2023-01-23T13:23:20;2.67;;;2.30;;
12445;SDS011;6287;50.984;7.022;2023-01-23T13:25:46;2.43;;;2.20;;
12445;SDS011;6287;50.984;7.022;2023-01-23T13:31:06;3.10;;;2.40;;
12445;SDS011;6287;50.984;7.022;2023-01-23T13:33:49;2.60;;;2.10;;
12445;SDS011;6287;50.984;7.022;2023-01-23T13:41:44;2.50;;;2.30;;
12445;SDS011;6287;50.984;7.022;2023-01-23T13:55:59;3.40;;;3.10;;
12445;SDS011;6287;50.984;7.022;2023-01-23T13:58:49;3.20;;;2.83;;
12445;SDS011;6287;50.984;7.022;2023-01-23T14:01:15;2.83;;;2.57;;
12445;SDS011;6287;50.984;7.022;2023-01-23T14:04:09;2.83;;;2.33;;
12445;SDS011;6287;50.984;7.022;2023-01-23T14:07:03;2.47;;;2.27;;
12445;SDS011;6287;50.984;7.022;2023-01-23T14:09:29;3.73;;;2.27;;
12445;SDS011;6287;50.984;7.022;2023-01-23T14:12:00;2.90;;;2.43;;
12445;SDS011;6287;50.984;7.022;2023-01-23T14:14:34;3.63;;;2.43;;
12445;SDS011;6287;50.984;7.022;2023-01-23T14:17:19;3.60;;;2.83;;
12445;SDS011;6287;50.984;7.022;2023-01-23T14:20:02;3.63;;;2.87;;
12445;SDS011;6287;50.984;7.022;2023-01-23T14:22:30;3.97;;;3.03;;
12445;SDS011;6287;50.984;7.022;2023-01-23T14:24:56;3.73;;;3.07;;
12445;SDS011;6287;50.984;7.022;2023-01-23T14:27:35;4.10;;;3.20;;
12445;SDS011;6287;50.984;7.022;2023-01-23T14:30:17;3.87;;;3.07;;
12445;SDS011;6287;50.984;7.022;2023-01-23T14:32:50;4.37;;;3.70;;
12445;SDS011;6287;50.984;7.022;2023-01-23T14:35:22;4.97;;;3.77;;
12445;SDS011;6287;50.984;7.022;2023-01-23T14:37:51;4.40;;;3.50;;
12445;SDS011;6287;50.984;7.022;2023-01-23T14:40:20;4.40;;;3.60;;
12445;SDS011;6287;50.984;7.022;2023-01-23T14:43:00;6.00;;;3.67;;
12445;SDS011;6287;50.984;7.022;2023-01-23T14:45:31;7.50;;;4.03;;
12445;SDS011;6287;50.984;7.022;2023-01-23T14:47:58;6.27;;;4.00;;
12445;SDS011;6287;50.984;7.022;2023-01-23T14:50:26;6.17;;;4.07;;
12445;SDS011;6287;50.984;7.022;2023-01-23T14:53:03;5.47;;;4.20;;
12445;SDS011;6287;50.984;7.022;2023-01-23T14:55:30;7.93;;;4.57;;
12445;SDS011;6287;50.984;7.022;2023-01-23T14:58:00;8.57;;;4.77;;
12445;SDS011;6287;50.984;7.022;2023-01-23T15:00:27;8.00;;;5.43;;
12445;SDS011;6287;50.984;7.022;2023-01-23T15:02:56;6.00;;;4.77;;
12445;SDS011;6287;50.984;7.022;2023-01-23T15:10:26;8.80;;;5.40;;
12445;SDS011;6287;50.984;7.022;2023-01-23T15:16:20;8.03;;;4.77;;
12445;SDS011;6287;50.984;7.022;2023-01-23T15:19:01;6.93;;;5.20;;
12445;SDS011;6287;50.984;7.022;2023-01-23T15:21:39;8.93;;;5.67;;
12445;SDS011;6287;50.984;7.022;2023-01-23T15:26:34;10.43;;;5.50;;
12445;SDS011;6287;50.984;7.022;2023-01-23T15:36:59;9.13;;;5.60;;
12445;SDS011;6287;50.984;7.022;2023-01-23T15:42:27;7.20;;;5.07;;
12445;SDS011;6287;50.984;7.022;2023-01-23T15:45:00;9.77;;;5.80;;
12445;SDS011;6287;50.984;7.022;2023-01-23T15:47:28;7.63;;;5.53;;
12445;SDS011;6287;50.984;7.022;2023-01-23T15:49:58;8.70;;;5.83;;
12445;SDS011;6287;50.984;7.022;2023-01-23T15:52:28;8.87;;;5.70;;
12445;SDS011;6287;50.984;7.022;2023-01-23T15:54:56;8.83;;;6.33;;
12445;SDS011;6287;50.984;7.022;2023-01-23T15:57:26;9.17;;;6.23;;
12445;SDS011;6287;50.984;7.022;2023-01-23T15:59:54;8.73;;;5.50;;
12445;SDS011;6287;50.984;7.022;2023-01-23T16:02:21;10.23;;;6.00;;
12445;SDS011;6287;50.984;7.022;2023-01-23T16:04:52;10.50;;;5.70;;
12445;SDS011;6287;50.984;7.022;2023-01-23T16:07:20;10.13;;;5.80;;
12445;SDS011;6287;50.984;7.022;2023-01-23T16:09:56;9.17;;;5.60;;
12445;SDS011;6287;50.984;7.022;2023-01-23T16:12:24;8.73;;;5.50;;
12445;SDS011;6287;50.984;7.022;2023-01-23T16:14:54;9.83;;;5.63;;
12445;SDS011;6287;50.984;7.022;2023-01-23T16:17:21;9.17;;;5.77;;
12445;SDS011;6287;50.984;7.022;2023-01-23T16:19:49;11.23;;;6.07;;
12445;SDS011;6287;50.984;7.022;2023-01-23T16:22:18;9.20;;;5.73;;
12445;SDS011;6287;50.984;7.022;2023-01-23T16:24:49;8.63;;;5.80;;
12445;SDS011;6287;50.984;7.022;2023-01-23T16:27:15;9.07;;;5.90;;
12445;SDS011;6287;50.984;7.022;2023-01-23T16:29:43;11.63;;;5.90;;
12445;SDS011;6287;50.984;7.022;2023-01-23T16:32:09;13.90;;;6.73;;
12445;SDS011;6287;50.984;7.022;2023-01-23T16:34:53;12.00;;;6.50;;
12445;SDS011;6287;50.984;7.022;2023-01-23T16:37:19;8.47;;;5.33;;
12445;SDS011;6287;50.984;7.022;2023-01-23T16:39:46;11.57;;;5.53;;
12445;SDS011;6287;50.984;7.022;2023-01-23T16:42:20;9.83;;;6.20;;
12445;SDS011;6287;50.984;7.022;2023-01-23T16:44:47;12.47;;;5.87;;
12445;SDS011;6287;50.984;7.022;2023-01-23T16:47:13;12.70;;;6.07;;
12445;SDS011;6287;50.984;7.022;2023-01-23T16:49:38;8.63;;;6.03;;
12445;SDS011;6287;50.984;7.022;2023-01-23T16:52:04;8.80;;;5.67;;
12445;SDS011;6287;50.984;7.022;2023-01-23T16:54:33;12.87;;;6.80;;
12445;SDS011;6287;50.984;7.022;2023-01-23T16:57:00;11.60;;;6.27;;
12445;SDS011;6287;50.984;7.022;2023-01-23T16:59:35;11.93;;;6.63;;
12445;SDS011;6287;50.984;7.022;2023-01-23T17:02:13;11.33;;;6.50;;
12445;SDS011;6287;50.984;7.022;2023-01-23T17:04:44;9.00;;;6.03;;
12445;SDS011;6287;50.984;7.022;2023-01-23T17:07:17;11.10;;;5.97;;
12445;SDS011;6287;50.984;7.022;2023-01-23T17:09:43;9.13;;;5.50;;
12445;SDS011;6287;50.984;7.022;2023-01-23T17:12:13;9.50;;;5.87;;
12445;SDS011;6287;50.984;7.022;2023-01-23T17:14:42;11.07;;;6.13;;
12445;SDS011;6287;50.984;7.022;2023-01-23T17:17:12;10.70;;;5.83;;
12445;SDS011;6287;50.984;7.022;2023-01-23T17:19:41;9.83;;;6.00;;
12445;SDS011;6287;50.984;7.022;2023-01-23T17:22:16;9.90;;;6.13;;
12445;SDS011;6287;50.984;7.022;2023-01-23T17:24:50;7.53;;;5.37;;
12445;SDS011;6287;50.984;7.022;2023-01-23T17:27:15;9.17;;;5.60;;
12445;SDS011;6287;50.984;7.022;2023-01-23T17:29:41;7.93;;;5.23;;
12445;SDS011;6287;50.984;7.022;2023-01-23T17:32:11;6.13;;;4.93;;
12445;SDS011;6287;50.984;7.022;2023-01-23T17:34:53;9.33;;;5.83;;
12445;SDS011;6287;50.984;7.022;2023-01-23T17:37:23;11.90;;;5.37;;
12445;SDS011;6287;50.984;7.022;2023-01-23T17:39:49;7.90;;;5.37;;
12445;SDS011;6287;50.984;7.022;2023-01-23T17:42:14;9.73;;;6.10;;
12445;SDS011;6287;50.984;7.022;2023-01-23T17:44:40;10.00;;;5.63;;
12445;SDS011;6287;50.984;7.022;2023-01-23T17:47:11;8.33;;;5.80;;
12445;SDS011;6287;50.984;7.022;2023-01-23T17:49:37;6.03;;;4.93;;
12445;SDS011;6287;50.984;7.022;2023-01-23T17:52:04;10.27;;;6.50;;
12445;SDS011;6287;50.984;7.022;2023-01-23T17:54:32;9.87;;;5.97;;
12445;SDS011;6287;50.984;7.022;2023-01-23T17:57:01;10.80;;;5.77;;